sensor_id;sensor_type;location;lat;lon;timestamp;P1;durP1;ratioP1;P2;durP2;ratioP2
33421;SDS011;19763;55.798;37.782;2023-05-09T00:00:06;30.98;;;14.43;;
33421;SDS011;19763;55.798;37.782;2023-05-09T00:02:35;25.38;;;13.50;;
33421;SDS011;19763;55.798;37.782;2023-05-09T00:05:02;33.10;;;14.00;;
33421;SDS011;19763;55.798;37.782;2023-05-09T00:07:29;23.98;;;12.52;;
33421;SDS011;19763;55.798;37.782;2023-05-09T00:09:56;23.63;;;12.45;;
33421;SDS011;19763;55.798;37.782;2023-05-09T00:12:22;24.20;;;12.57;;
33421;SDS011;19763;55.798;37.782;2023-05-09T00:14:48;23.95;;;13.65;;
33421;SDS011;19763;55.798;37.782;2023-05-09T00:17:17;22.23;;;12.85;;
33421;SDS011;19763;55.798;37.782;2023-05-09T00:19:43;25.77;;;12.68;;
33421;SDS011;19763;55.798;37.782;2023-05-09T00:22:09;27.65;;;12.15;;
33421;SDS011;19763;55.798;37.782;2023-05-09T00:24:37;29.20;;;13.05;;
33421;SDS011;19763;55.798;37.782;2023-05-09T00:27:03;26.17;;;12.98;;
33421;SDS011;19763;55.798;37.782;2023-05-09T00:29:29;26.63;;;13.73;;
33421;SDS011;19763;55.798;37.782;2023-05-09T00:31:54;26.30;;;13.55;;
33421;SDS011;19763;55.798;37.782;2023-05-09T00:34:20;24.33;;;13.00;;
33421;SDS011;19763;55.798;37.782;2023-05-09T00:36:46;25.17;;;14.40;;
33421;SDS011;19763;55.798;37.782;2023-05-09T00:39:11;26.33;;;13.10;;
33421;SDS011;19763;55.798;37.782;2023-05-09T00:41:37;27.60;;;14.20;;
33421;SDS011;19763;55.798;37.782;2023-05-09T00:44:03;26.42;;;14.20;;
33421;SDS011;19763;55.798;37.782;2023-05-09T00:46:28;26.98;;;14.02;;
33421;SDS011;19763;55.798;37.782;2023-05-09T00:48:54;24.27;;;13.90;;
33421;SDS011;19763;55.798;37.782;2023-05-09T00:51:20;34.50;;;14.55;;
33421;SDS011;19763;55.798;37.782;2023-05-09T00:53:47;27.90;;;13.82;;
33421;SDS011;19763;55.798;37.782;2023-05-09T00:56:12;26.27;;;13.65;;
33421;SDS011;19763;55.798;37.782;2023-05-09T00:58:39;28.38;;;14.75;;
33421;SDS011;19763;55.798;37.782;2023-05-09T01:01:05;29.90;;;14.82;;
33421;SDS011;19763;55.798;37.782;2023-05-09T01:03:32;30.60;;;15.65;;
33421;SDS011;19763;55.798;37.782;2023-05-09T01:06:08;28.10;;;15.52;;
33421;SDS011;19763;55.798;37.782;2023-05-09T01:11:30;29.95;;;15.13;;
33421;SDS011;19763;55.798;37.782;2023-05-09T01:16:46;29.08;;;14.10;;
33421;SDS011;19763;55.798;37.782;2023-05-09T01:19:26;29.40;;;13.63;;
33421;SDS011;19763;55.798;37.782;2023-05-09T01:22:14;26.63;;;15.10;;
33421;SDS011;19763;55.798;37.782;2023-05-09T01:25:05;26.35;;;14.82;;
33421;SDS011;19763;55.798;37.782;2023-05-09T01:30:17;26.33;;;15.10;;
33421;SDS011;19763;55.798;37.782;2023-05-09T01:32:45;27.33;;;15.95;;
33421;SDS011;19763;55.798;37.782;2023-05-09T01:35:14;33.53;;;17.02;;
33421;SDS011;19763;55.798;37.782;2023-05-09T01:37:41;32.92;;;16.27;;
33421;SDS011;19763;55.798;37.782;2023-05-09T01:40:10;29.25;;;16.70;;
33421;SDS011;19763;55.798;37.782;2023-05-09T01:42:46;28.45;;;16.08;;
33421;SDS011;19763;55.798;37.782;2023-05-09T01:45:16;37.97;;;17.00;;
33421;SDS011;19763;55.798;37.782;2023-05-09T01:47:43;32.70;;;16.10;;
33421;SDS011;19763;55.798;37.782;2023-05-09T01:50:12;33.40;;;15.70;;
33421;SDS011;19763;55.798;37.782;2023-05-09T01:52:41;27.60;;;15.88;;
33421;SDS011;19763;55.798;37.782;2023-05-09T01:55:08;30.95;;;16.10;;
33421;SDS011;19763;55.798;37.782;2023-05-09T01:57:35;34.00;;;15.85;;
33421;SDS011;19763;55.798;37.782;2023-05-09T02:00:03;28.52;;;16.02;;
33421;SDS011;19763;55.798;37.782;2023-05-09T02:02:32;30.35;;;15.88;;
33421;SDS011;19763;55.798;37.782;2023-05-09T02:04:57;30.83;;;15.60;;
33421;SDS011;19763;55.798;37.782;2023-05-09T02:07:24;35.47;;;17.13;;
33421;SDS011;19763;55.798;37.782;2023-05-09T02:09:52;25.42;;;16.05;;
33421;SDS011;19763;55.798;37.782;2023-05-09T02:12:21;28.13;;;15.20;;
33421;SDS011;19763;55.798;37.782;2023-05-09T02:14:48;27.08;;;15.02;;
33421;SDS011;19763;55.798;37.782;2023-05-09T02:17:14;28.40;;;15.55;;
33421;SDS011;19763;55.798;37.782;2023-05-09T02:19:42;31.75;;;16.33;;
33421;SDS011;19763;55.798;37.782;2023-05-09T02:22:28;28.70;;;15.20;;
33421;SDS011;19763;55.798;37.782;2023-05-09T02:24:53;29.02;;;15.95;;
33421;SDS011;19763;55.798;37.782;2023-05-09T02:27:19;31.05;;;16.90;;
33421;SDS011;19763;55.798;37.782;2023-05-09T02:29:46;32.40;;;16.67;;
33421;SDS011;19763;55.798;37.782;2023-05-09T02:32:17;34.45;;;16.58;;
33421;SDS011;19763;55.798;37.782;2023-05-09T02:34:46;36.53;;;16.45;;
33421;SDS011;19763;55.798;37.782;2023-05-09T02:37:13;36.67;;;16.77;;
33421;SDS011;19763;55.798;37.782;2023-05-09T02:39:40;30.75;;;15.77;;
33421;SDS011;19763;55.798;37.782;2023-05-09T02:42:07;34.33;;;16.13;;
33421;SDS011;19763;55.798;37.782;2023-05-09T02:44:35;29.33;;;15.27;;
33421;SDS011;19763;55.798;37.782;2023-05-09T02:47:04;34.90;;;16.63;;
33421;SDS011;19763;55.798;37.782;2023-05-09T02:49:31;26.17;;;14.05;;
33421;SDS011;19763;55.798;37.782;2023-05-09T02:51:57;30.80;;;16.25;;
33421;SDS011;19763;55.798;37.782;2023-05-09T02:54:23;35.83;;;16.60;;
33421;SDS011;19763;55.798;37.782;2023-05-09T02:56:48;31.33;;;15.75;;
33421;SDS011;19763;55.798;37.782;2023-05-09T02:59:14;32.08;;;16.38;;
33421;SDS011;19763;55.798;37.782;2023-05-09T03:01:41;35.72;;;16.85;;
33421;SDS011;19763;55.798;37.782;2023-05-09T03:04:06;38.97;;;16.52;;
33421;SDS011;19763;55.798;37.782;2023-05-09T03:06:32;31.20;;;15.48;;
33421;SDS011;19763;55.798;37.782;2023-05-09T03:08:57;38.45;;;15.80;;
33421;SDS011;19763;55.798;37.782;2023-05-09T03:11:23;35.42;;;18.58;;
33421;SDS011;19763;55.798;37.782;2023-05-09T03:13:49;34.42;;;19.08;;
33421;SDS011;19763;55.798;37.782;2023-05-09T03:16:16;37.88;;;19.08;;
33421;SDS011;19763;55.798;37.782;2023-05-09T03:18:42;35.28;;;17.92;;
33421;SDS011;19763;55.798;37.782;2023-05-09T03:21:08;32.38;;;18.02;;
33421;SDS011;19763;55.798;37.782;2023-05-09T03:23:33;35.60;;;16.85;;
33421;SDS011;19763;55.798;37.782;2023-05-09T03:25:59;31.58;;;17.52;;
33421;SDS011;19763;55.798;37.782;2023-05-09T03:28:26;30.55;;;16.70;;
33421;SDS011;19763;55.798;37.782;2023-05-09T03:30:52;32.67;;;16.95;;
33421;SDS011;19763;55.798;37.782;2023-05-09T03:33:17;27.45;;;15.57;;
33421;SDS011;19763;55.798;37.782;2023-05-09T03:35:43;32.95;;;15.55;;
33421;SDS011;19763;55.798;37.782;2023-05-09T03:38:09;31.15;;;15.82;;
33421;SDS011;19763;55.798;37.782;2023-05-09T03:40:34;27.10;;;14.40;;
33421;SDS011;19763;55.798;37.782;2023-05-09T03:43:00;31.02;;;15.00;;
33421;SDS011;19763;55.798;37.782;2023-05-09T03:45:25;31.63;;;13.70;;
33421;SDS011;19763;55.798;37.782;2023-05-09T03:47:51;28.50;;;14.00;;
33421;SDS011;19763;55.798;37.782;2023-05-09T03:50:16;23.33;;;13.35;;
33421;SDS011;19763;55.798;37.782;2023-05-09T03:52:42;38.97;;;15.00;;
33421;SDS011;19763;55.798;37.782;2023-05-09T03:55:08;23.33;;;12.77;;
33421;SDS011;19763;55.798;37.782;2023-05-09T03:57:34;22.92;;;12.23;;
33421;SDS011;19763;55.798;37.782;2023-05-09T04:00:00;21.65;;;11.27;;
33421;SDS011;19763;55.798;37.782;2023-05-09T04:02:29;19.58;;;10.65;;
33421;SDS011;19763;55.798;37.782;2023-05-09T04:04:55;21.10;;;10.25;;
33421;SDS011;19763;55.798;37.782;2023-05-09T04:07:20;19.17;;;9.00;;
33421;SDS011;19763;55.798;37.782;2023-05-09T04:09:46;16.27;;;8.93;;
33421;SDS011;19763;55.798;37.782;2023-05-09T04:12:12;16.70;;;8.23;;
33421;SDS011;19763;55.798;37.782;2023-05-09T04:14:38;19.73;;;8.93;;
33421;SDS011;19763;55.798;37.782;2023-05-09T04:17:03;12.63;;;7.45;;
33421;SDS011;19763;55.798;37.782;2023-05-09T04:19:29;11.82;;;7.22;;
33421;SDS011;19763;55.798;37.782;2023-05-09T04:21:55;13.93;;;8.10;;
33421;SDS011;19763;55.798;37.782;2023-05-09T04:24:20;9.77;;;6.53;;
33421;SDS011;19763;55.798;37.782;2023-05-09T04:26:46;12.55;;;7.05;;
33421;SDS011;19763;55.798;37.782;2023-05-09T04:29:11;12.90;;;7.18;;
33421;SDS011;19763;55.798;37.782;2023-05-09T04:31:37;12.10;;;6.95;;
33421;SDS011;19763;55.798;37.782;2023-05-09T04:34:03;17.08;;;6.47;;
33421;SDS011;19763;55.798;37.782;2023-05-09T04:36:28;11.88;;;6.35;;
33421;SDS011;19763;55.798;37.782;2023-05-09T04:38:56;13.02;;;6.47;;
33421;SDS011;19763;55.798;37.782;2023-05-09T04:41:21;11.45;;;6.50;;
33421;SDS011;19763;55.798;37.782;2023-05-09T04:43:48;9.93;;;6.00;;
33421;SDS011;19763;55.798;37.782;2023-05-09T04:46:13;8.32;;;5.38;;
33421;SDS011;19763;55.798;37.782;2023-05-09T04:48:39;10.52;;;4.55;;
33421;SDS011;19763;55.798;37.782;2023-05-09T04:51:05;6.25;;;3.47;;
33421;SDS011;19763;55.798;37.782;2023-05-09T04:53:31;6.07;;;3.42;;
33421;SDS011;19763;55.798;37.782;2023-05-09T04:55:58;4.85;;;3.10;;
33421;SDS011;19763;55.798;37.782;2023-05-09T04:58:24;6.90;;;3.08;;
33421;SDS011;19763;55.798;37.782;2023-05-09T05:00:50;5.97;;;3.13;;
33421;SDS011;19763;55.798;37.782;2023-05-09T05:03:16;3.85;;;2.70;;
33421;SDS011;19763;55.798;37.782;2023-05-09T05:05:42;4.00;;;2.75;;
33421;SDS011;19763;55.798;37.782;2023-05-09T05:08:08;4.93;;;2.80;;
33421;SDS011;19763;55.798;37.782;2023-05-09T05:10:34;6.72;;;2.88;;
33421;SDS011;19763;55.798;37.782;2023-05-09T05:12:59;3.17;;;2.50;;
33421;SDS011;19763;55.798;37.782;2023-05-09T05:15:25;4.28;;;3.00;;
33421;SDS011;19763;55.798;37.782;2023-05-09T05:17:51;4.68;;;2.50;;
33421;SDS011;19763;55.798;37.782;2023-05-09T05:20:17;4.68;;;2.78;;
33421;SDS011;19763;55.798;37.782;2023-05-09T05:22:42;4.05;;;2.70;;
33421;SDS011;19763;55.798;37.782;2023-05-09T05:25:08;4.47;;;2.78;;
33421;SDS011;19763;55.798;37.782;2023-05-09T05:27:34;3.88;;;2.40;;
33421;SDS011;19763;55.798;37.782;2023-05-09T05:29:59;3.75;;;2.63;;
33421;SDS011;19763;55.798;37.782;2023-05-09T05:32:25;4.35;;;2.40;;
33421;SDS011;19763;55.798;37.782;2023-05-09T05:34:50;6.30;;;2.38;;
33421;SDS011;19763;55.798;37.782;2023-05-09T05:37:16;2.53;;;1.98;;
33421;SDS011;19763;55.798;37.782;2023-05-09T05:39:42;3.97;;;2.38;;
33421;SDS011;19763;55.798;37.782;2023-05-09T05:42:07;3.90;;;2.15;;
33421;SDS011;19763;55.798;37.782;2023-05-09T05:44:33;4.63;;;2.08;;
33421;SDS011;19763;55.798;37.782;2023-05-09T05:46:58;3.78;;;2.58;;
33421;SDS011;19763;55.798;37.782;2023-05-09T05:49:24;4.50;;;2.42;;
33421;SDS011;19763;55.798;37.782;2023-05-09T05:51:50;5.25;;;3.05;;
33421;SDS011;19763;55.798;37.782;2023-05-09T05:54:15;6.70;;;3.17;;
33421;SDS011;19763;55.798;37.782;2023-05-09T05:56:41;8.15;;;2.85;;
33421;SDS011;19763;55.798;37.782;2023-05-09T05:59:07;3.17;;;2.17;;
33421;SDS011;19763;55.798;37.782;2023-05-09T06:01:32;5.00;;;2.50;;
33421;SDS011;19763;55.798;37.782;2023-05-09T06:03:58;2.53;;;2.33;;
33421;SDS011;19763;55.798;37.782;2023-05-09T06:06:25;2.58;;;2.25;;
33421;SDS011;19763;55.798;37.782;2023-05-09T06:08:51;5.35;;;2.63;;
33421;SDS011;19763;55.798;37.782;2023-05-09T06:11:17;2.30;;;2.10;;
33421;SDS011;19763;55.798;37.782;2023-05-09T06:13:43;3.50;;;1.90;;
33421;SDS011;19763;55.798;37.782;2023-05-09T06:16:09;2.13;;;1.55;;
33421;SDS011;19763;55.798;37.782;2023-05-09T06:18:35;1.95;;;1.50;;
33421;SDS011;19763;55.798;37.782;2023-05-09T06:21:05;3.17;;;1.63;;
33421;SDS011;19763;55.798;37.782;2023-05-09T06:23:31;1.52;;;1.42;;
33421;SDS011;19763;55.798;37.782;2023-05-09T06:25:57;1.95;;;1.38;;
33421;SDS011;19763;55.798;37.782;2023-05-09T06:28:23;2.65;;;1.90;;
33421;SDS011;19763;55.798;37.782;2023-05-09T06:30:48;3.38;;;1.70;;
33421;SDS011;19763;55.798;37.782;2023-05-09T06:33:14;3.17;;;1.80;;
33421;SDS011;19763;55.798;37.782;2023-05-09T06:35:40;3.20;;;1.70;;
33421;SDS011;19763;55.798;37.782;2023-05-09T06:38:05;3.13;;;1.70;;
33421;SDS011;19763;55.798;37.782;2023-05-09T06:40:31;3.15;;;1.90;;
33421;SDS011;19763;55.798;37.782;2023-05-09T06:42:56;7.28;;;1.85;;
33421;SDS011;19763;55.798;37.782;2023-05-09T06:45:22;3.50;;;1.58;;
33421;SDS011;19763;55.798;37.782;2023-05-09T06:47:48;2.13;;;1.65;;
33421;SDS011;19763;55.798;37.782;2023-05-09T06:50:13;2.75;;;1.60;;
33421;SDS011;19763;55.798;37.782;2023-05-09T06:52:39;1.70;;;1.55;;
33421;SDS011;19763;55.798;37.782;2023-05-09T06:55:04;2.05;;;1.45;;
33421;SDS011;19763;55.798;37.782;2023-05-09T06:57:31;2.25;;;1.50;;
33421;SDS011;19763;55.798;37.782;2023-05-09T06:59:56;2.47;;;1.30;;
33421;SDS011;19763;55.798;37.782;2023-05-09T07:02:22;4.85;;;1.50;;
33421;SDS011;19763;55.798;37.782;2023-05-09T07:04:47;2.15;;;1.60;;
33421;SDS011;19763;55.798;37.782;2023-05-09T07:07:13;4.95;;;1.92;;
33421;SDS011;19763;55.798;37.782;2023-05-09T07:09:40;3.13;;;1.90;;
33421;SDS011;19763;55.798;37.782;2023-05-09T07:12:05;3.00;;;1.50;;
33421;SDS011;19763;55.798;37.782;2023-05-09T07:14:31;5.05;;;3.40;;
33421;SDS011;19763;55.798;37.782;2023-05-09T07:16:57;3.00;;;1.70;;
33421;SDS011;19763;55.798;37.782;2023-05-09T07:19:22;1.50;;;1.40;;
33421;SDS011;19763;55.798;37.782;2023-05-09T07:21:48;1.80;;;1.30;;
33421;SDS011;19763;55.798;37.782;2023-05-09T07:24:14;2.08;;;1.45;;
33421;SDS011;19763;55.798;37.782;2023-05-09T07:26:39;5.55;;;1.67;;
33421;SDS011;19763;55.798;37.782;2023-05-09T07:29:05;4.35;;;1.55;;
33421;SDS011;19763;55.798;37.782;2023-05-09T07:31:30;3.10;;;1.45;;
33421;SDS011;19763;55.798;37.782;2023-05-09T07:33:56;1.60;;;1.50;;
33421;SDS011;19763;55.798;37.782;2023-05-09T07:36:22;2.83;;;1.42;;
33421;SDS011;19763;55.798;37.782;2023-05-09T07:38:48;3.42;;;1.70;;
33421;SDS011;19763;55.798;37.782;2023-05-09T07:41:16;3.78;;;1.75;;
33421;SDS011;19763;55.798;37.782;2023-05-09T07:43:42;2.15;;;1.50;;
33421;SDS011;19763;55.798;37.782;2023-05-09T07:46:07;2.60;;;1.40;;
33421;SDS011;19763;55.798;37.782;2023-05-09T07:48:33;1.55;;;1.45;;
33421;SDS011;19763;55.798;37.782;2023-05-09T07:50:58;3.53;;;1.50;;
33421;SDS011;19763;55.798;37.782;2023-05-09T07:53:24;1.77;;;1.38;;
33421;SDS011;19763;55.798;37.782;2023-05-09T07:55:50;1.95;;;1.38;;
33421;SDS011;19763;55.798;37.782;2023-05-09T07:58:16;2.67;;;1.73;;
33421;SDS011;19763;55.798;37.782;2023-05-09T08:00:41;2.65;;;1.50;;
33421;SDS011;19763;55.798;37.782;2023-05-09T08:03:07;3.17;;;1.30;;
33421;SDS011;19763;55.798;37.782;2023-05-09T08:05:33;2.88;;;1.70;;
33421;SDS011;19763;55.798;37.782;2023-05-09T08:07:58;3.78;;;2.00;;
33421;SDS011;19763;55.798;37.782;2023-05-09T08:10:24;3.80;;;1.80;;
33421;SDS011;19763;55.798;37.782;2023-05-09T08:12:51;14.05;;;2.17;;
33421;SDS011;19763;55.798;37.782;2023-05-09T08:15:16;1.50;;;1.40;;
33421;SDS011;19763;55.798;37.782;2023-05-09T08:17:42;2.60;;;1.60;;
33421;SDS011;19763;55.798;37.782;2023-05-09T08:20:08;4.55;;;1.73;;
33421;SDS011;19763;55.798;37.782;2023-05-09T08:22:37;2.80;;;1.70;;
33421;SDS011;19763;55.798;37.782;2023-05-09T08:25:03;2.20;;;1.60;;
33421;SDS011;19763;55.798;37.782;2023-05-09T08:27:29;2.38;;;1.50;;
33421;SDS011;19763;55.798;37.782;2023-05-09T08:29:54;2.50;;;1.70;;
33421;SDS011;19763;55.798;37.782;2023-05-09T08:32:20;3.95;;;1.50;;
33421;SDS011;19763;55.798;37.782;2023-05-09T08:34:45;3.10;;;2.20;;
33421;SDS011;19763;55.798;37.782;2023-05-09T08:37:11;2.55;;;1.35;;
33421;SDS011;19763;55.798;37.782;2023-05-09T08:39:37;2.90;;;1.45;;
33421;SDS011;19763;55.798;37.782;2023-05-09T08:42:02;1.67;;;1.35;;
33421;SDS011;19763;55.798;37.782;2023-05-09T08:44:28;1.60;;;1.50;;
33421;SDS011;19763;55.798;37.782;2023-05-09T08:46:59;1.80;;;1.52;;
33421;SDS011;19763;55.798;37.782;2023-05-09T08:49:25;2.45;;;1.42;;
33421;SDS011;19763;55.798;37.782;2023-05-09T08:51:52;12.13;;;9.30;;
33421;SDS011;19763;55.798;37.782;2023-05-09T08:54:18;2.97;;;1.90;;
33421;SDS011;19763;55.798;37.782;2023-05-09T08:56:45;1.45;;;1.30;;
33421;SDS011;19763;55.798;37.782;2023-05-09T08:59:10;1.83;;;1.50;;
33421;SDS011;19763;55.798;37.782;2023-05-09T09:01:37;3.85;;;1.30;;
33421;SDS011;19763;55.798;37.782;2023-05-09T09:04:06;2.70;;;1.38;;
33421;SDS011;19763;55.798;37.782;2023-05-09T09:06:33;1.95;;;1.65;;
33421;SDS011;19763;55.798;37.782;2023-05-09T09:09:00;2.17;;;1.77;;
33421;SDS011;19763;55.798;37.782;2023-05-09T09:11:29;2.85;;;1.40;;
33421;SDS011;19763;55.798;37.782;2023-05-09T09:13:55;1.58;;;1.48;;
33421;SDS011;19763;55.798;37.782;2023-05-09T09:16:26;2.97;;;1.40;;
33421;SDS011;19763;55.798;37.782;2023-05-09T09:18:53;1.67;;;1.52;;
33421;SDS011;19763;55.798;37.782;2023-05-09T09:21:20;1.50;;;1.40;;
33421;SDS011;19763;55.798;37.782;2023-05-09T09:23:47;2.85;;;2.30;;
33421;SDS011;19763;55.798;37.782;2023-05-09T09:26:14;1.63;;;1.52;;
33421;SDS011;19763;55.798;37.782;2023-05-09T09:28:40;1.95;;;1.67;;
33421;SDS011;19763;55.798;37.782;2023-05-09T09:31:19;1.58;;;1.48;;
33421;SDS011;19763;55.798;37.782;2023-05-09T09:33:57;3.05;;;1.85;;
33421;SDS011;19763;55.798;37.782;2023-05-09T09:36:27;2.28;;;1.67;;
33421;SDS011;19763;55.798;37.782;2023-05-09T09:39:01;2.55;;;1.77;;
33421;SDS011;19763;55.798;37.782;2023-05-09T09:41:36;2.30;;;2.10;;
33421;SDS011;19763;55.798;37.782;2023-05-09T09:44:06;3.25;;;1.90;;
33421;SDS011;19763;55.798;37.782;2023-05-09T09:46:48;2.00;;;1.75;;
33421;SDS011;19763;55.798;37.782;2023-05-09T09:49:16;2.50;;;1.60;;
33421;SDS011;19763;55.798;37.782;2023-05-09T09:51:43;3.25;;;1.58;;
33421;SDS011;19763;55.798;37.782;2023-05-09T09:54:10;3.08;;;2.00;;
33421;SDS011;19763;55.798;37.782;2023-05-09T09:56:41;3.13;;;1.92;;
33421;SDS011;19763;55.798;37.782;2023-05-09T09:59:17;6.22;;;2.03;;
33421;SDS011;19763;55.798;37.782;2023-05-09T10:01:57;1.90;;;1.80;;
33421;SDS011;19763;55.798;37.782;2023-05-09T10:04:46;2.63;;;1.80;;
33421;SDS011;19763;55.798;37.782;2023-05-09T10:07:12;3.60;;;1.88;;
33421;SDS011;19763;55.798;37.782;2023-05-09T10:09:37;4.57;;;1.60;;
33421;SDS011;19763;55.798;37.782;2023-05-09T10:12:03;1.77;;;1.55;;
33421;SDS011;19763;55.798;37.782;2023-05-09T10:14:31;1.80;;;1.60;;
33421;SDS011;19763;55.798;37.782;2023-05-09T10:16:58;2.47;;;1.73;;
33421;SDS011;19763;55.798;37.782;2023-05-09T10:19:26;3.22;;;1.95;;
33421;SDS011;19763;55.798;37.782;2023-05-09T10:21:54;2.38;;;1.90;;
33421;SDS011;19763;55.798;37.782;2023-05-09T10:24:25;2.85;;;1.80;;
33421;SDS011;19763;55.798;37.782;2023-05-09T10:26:55;2.70;;;1.80;;
33421;SDS011;19763;55.798;37.782;2023-05-09T10:29:28;2.47;;;1.90;;
33421;SDS011;19763;55.798;37.782;2023-05-09T10:31:58;2.20;;;1.90;;
33421;SDS011;19763;55.798;37.782;2023-05-09T10:34:30;2.78;;;1.90;;
33421;SDS011;19763;55.798;37.782;2023-05-09T10:36:59;3.30;;;1.70;;
33421;SDS011;19763;55.798;37.782;2023-05-09T10:39:26;2.97;;;1.80;;
33421;SDS011;19763;55.798;37.782;2023-05-09T10:41:52;1.83;;;1.70;;
33421;SDS011;19763;55.798;37.782;2023-05-09T10:44:18;5.43;;;1.98;;
33421;SDS011;19763;55.798;37.782;2023-05-09T10:46:47;2.58;;;1.80;;
33421;SDS011;19763;55.798;37.782;2023-05-09T10:49:13;2.10;;;1.80;;
33421;SDS011;19763;55.798;37.782;2023-05-09T10:51:39;2.05;;;1.80;;
33421;SDS011;19763;55.798;37.782;2023-05-09T10:54:25;4.10;;;2.10;;
33421;SDS011;19763;55.798;37.782;2023-05-09T10:56:52;3.22;;;2.00;;
33421;SDS011;19763;55.798;37.782;2023-05-09T10:59:37;2.15;;;1.90;;
33421;SDS011;19763;55.798;37.782;2023-05-09T11:02:05;3.55;;;2.80;;
33421;SDS011;19763;55.798;37.782;2023-05-09T11:04:35;4.20;;;1.90;;
33421;SDS011;19763;55.798;37.782;2023-05-09T11:07:05;2.70;;;1.90;;
33421;SDS011;19763;55.798;37.782;2023-05-09T11:09:50;3.42;;;2.00;;
33421;SDS011;19763;55.798;37.782;2023-05-09T11:12:18;3.55;;;1.92;;
33421;SDS011;19763;55.798;37.782;2023-05-09T11:14:46;3.50;;;1.95;;
33421;SDS011;19763;55.798;37.782;2023-05-09T11:22:20;2.97;;;2.03;;
33421;SDS011;19763;55.798;37.782;2023-05-09T11:27:47;2.63;;;1.65;;
33421;SDS011;19763;55.798;37.782;2023-05-09T11:30:14;2.50;;;2.00;;
33421;SDS011;19763;55.798;37.782;2023-05-09T11:32:46;2.10;;;1.80;;
33421;SDS011;19763;55.798;37.782;2023-05-09T11:35:17;1.88;;;1.50;;
33421;SDS011;19763;55.798;37.782;2023-05-09T11:40:32;2.85;;;1.65;;
33421;SDS011;19763;55.798;37.782;2023-05-09T11:42:59;3.35;;;1.85;;
33421;SDS011;19763;55.798;37.782;2023-05-09T11:45:26;3.47;;;2.08;;
33421;SDS011;19763;55.798;37.782;2023-05-09T11:47:53;3.15;;;1.88;;
33421;SDS011;19763;55.798;37.782;2023-05-09T11:50:21;2.97;;;2.10;;
33421;SDS011;19763;55.798;37.782;2023-05-09T11:52:47;2.90;;;2.30;;
33421;SDS011;19763;55.798;37.782;2023-05-09T11:55:14;3.63;;;2.33;;
33421;SDS011;19763;55.798;37.782;2023-05-09T11:57:46;2.67;;;2.40;;
33421;SDS011;19763;55.798;37.782;2023-05-09T12:00:19;6.28;;;1.98;;
33421;SDS011;19763;55.798;37.782;2023-05-09T12:02:47;10.05;;;2.10;;
33421;SDS011;19763;55.798;37.782;2023-05-09T12:05:15;2.00;;;1.73;;
33421;SDS011;19763;55.798;37.782;2023-05-09T12:07:43;3.42;;;2.05;;
33421;SDS011;19763;55.798;37.782;2023-05-09T12:10:19;2.90;;;2.08;;
33421;SDS011;19763;55.798;37.782;2023-05-09T12:12:49;2.50;;;2.13;;
33421;SDS011;19763;55.798;37.782;2023-05-09T12:15:16;3.10;;;1.80;;
33421;SDS011;19763;55.798;37.782;2023-05-09T12:17:42;2.80;;;2.30;;
33421;SDS011;19763;55.798;37.782;2023-05-09T12:20:09;2.63;;;2.08;;
33421;SDS011;19763;55.798;37.782;2023-05-09T12:22:35;2.20;;;2.00;;
33421;SDS011;19763;55.798;37.782;2023-05-09T12:25:05;2.60;;;2.08;;
33421;SDS011;19763;55.798;37.782;2023-05-09T12:27:32;3.35;;;2.08;;
33421;SDS011;19763;55.798;37.782;2023-05-09T12:29:59;2.60;;;2.13;;
33421;SDS011;19763;55.798;37.782;2023-05-09T12:32:26;2.55;;;1.92;;
33421;SDS011;19763;55.798;37.782;2023-05-09T12:34:57;4.67;;;2.10;;
33421;SDS011;19763;55.798;37.782;2023-05-09T12:37:24;2.95;;;2.20;;
33421;SDS011;19763;55.798;37.782;2023-05-09T12:42:36;4.90;;;2.03;;
33421;SDS011;19763;55.798;37.782;2023-05-09T12:45:02;3.95;;;2.13;;
33421;SDS011;19763;55.798;37.782;2023-05-09T12:47:31;3.78;;;2.40;;
33421;SDS011;19763;55.798;37.782;2023-05-09T12:50:01;3.92;;;1.88;;
33421;SDS011;19763;55.798;37.782;2023-05-09T12:52:32;2.50;;;1.83;;
33421;SDS011;19763;55.798;37.782;2023-05-09T12:55:04;2.67;;;1.85;;
33421;SDS011;19763;55.798;37.782;2023-05-09T12:57:31;4.03;;;2.17;;
33421;SDS011;19763;55.798;37.782;2023-05-09T13:00:00;5.60;;;2.10;;
33421;SDS011;19763;55.798;37.782;2023-05-09T13:02:36;4.57;;;2.05;;
33421;SDS011;19763;55.798;37.782;2023-05-09T13:05:05;2.42;;;1.90;;
33421;SDS011;19763;55.798;37.782;2023-05-09T13:07:41;4.03;;;2.50;;
33421;SDS011;19763;55.798;37.782;2023-05-09T13:10:11;2.13;;;1.92;;
33421;SDS011;19763;55.798;37.782;2023-05-09T13:12:39;4.05;;;2.00;;
33421;SDS011;19763;55.798;37.782;2023-05-09T13:15:09;3.42;;;2.00;;
33421;SDS011;19763;55.798;37.782;2023-05-09T13:17:36;3.55;;;2.72;;
33421;SDS011;19763;55.798;37.782;2023-05-09T13:20:02;3.65;;;2.22;;
33421;SDS011;19763;55.798;37.782;2023-05-09T13:22:31;3.30;;;2.20;;
33421;SDS011;19763;55.798;37.782;2023-05-09T13:24:57;2.28;;;2.08;;
33421;SDS011;19763;55.798;37.782;2023-05-09T13:27:22;5.15;;;2.10;;
33421;SDS011;19763;55.798;37.782;2023-05-09T13:29:48;2.50;;;2.30;;
33421;SDS011;19763;55.798;37.782;2023-05-09T13:32:14;2.50;;;2.30;;
33421;SDS011;19763;55.798;37.782;2023-05-09T13:34:40;3.63;;;1.88;;
33421;SDS011;19763;55.798;37.782;2023-05-09T13:37:06;2.47;;;2.13;;
33421;SDS011;19763;55.798;37.782;2023-05-09T13:39:31;4.97;;;1.90;;
33421;SDS011;19763;55.798;37.782;2023-05-09T13:41:57;2.60;;;2.08;;
33421;SDS011;19763;55.798;37.782;2023-05-09T13:44:23;3.03;;;2.13;;
33421;SDS011;19763;55.798;37.782;2023-05-09T13:46:48;3.97;;;2.22;;
33421;SDS011;19763;55.798;37.782;2023-05-09T13:49:14;4.63;;;2.15;;
33421;SDS011;19763;55.798;37.782;2023-05-09T13:51:40;4.43;;;2.30;;
33421;SDS011;19763;55.798;37.782;2023-05-09T13:54:06;10.13;;;2.90;;
33421;SDS011;19763;55.798;37.782;2023-05-09T13:56:39;3.83;;;2.45;;
33421;SDS011;19763;55.798;37.782;2023-05-09T13:59:07;2.95;;;2.22;;
33421;SDS011;19763;55.798;37.782;2023-05-09T14:01:33;3.20;;;2.33;;
33421;SDS011;19763;55.798;37.782;2023-05-09T14:03:59;5.68;;;2.92;;
33421;SDS011;19763;55.798;37.782;2023-05-09T14:06:25;6.00;;;3.72;;
33421;SDS011;19763;55.798;37.782;2023-05-09T14:08:51;4.95;;;3.33;;
33421;SDS011;19763;55.798;37.782;2023-05-09T14:11:17;5.93;;;3.92;;
33421;SDS011;19763;55.798;37.782;2023-05-09T14:13:42;4.47;;;3.42;;
33421;SDS011;19763;55.798;37.782;2023-05-09T14:16:08;7.35;;;3.83;;
33421;SDS011;19763;55.798;37.782;2023-05-09T14:18:34;3.80;;;2.55;;
33421;SDS011;19763;55.798;37.782;2023-05-09T14:21:00;2.17;;;1.98;;
33421;SDS011;19763;55.798;37.782;2023-05-09T14:23:25;3.35;;;2.78;;
33421;SDS011;19763;55.798;37.782;2023-05-09T14:25:51;3.50;;;2.63;;
33421;SDS011;19763;55.798;37.782;2023-05-09T14:28:17;5.07;;;2.35;;
33421;SDS011;19763;55.798;37.782;2023-05-09T14:30:42;3.50;;;2.45;;
33421;SDS011;19763;55.798;37.782;2023-05-09T14:33:08;4.15;;;2.30;;
33421;SDS011;19763;55.798;37.782;2023-05-09T14:35:34;3.80;;;2.20;;
33421;SDS011;19763;55.798;37.782;2023-05-09T14:38:00;3.17;;;2.13;;
33421;SDS011;19763;55.798;37.782;2023-05-09T14:40:26;3.67;;;2.20;;
33421;SDS011;19763;55.798;37.782;2023-05-09T14:42:56;3.80;;;2.55;;
33421;SDS011;19763;55.798;37.782;2023-05-09T14:45:23;3.67;;;2.53;;
33421;SDS011;19763;55.798;37.782;2023-05-09T14:47:49;2.72;;;2.50;;